createdAt,value
2018-09-21T00:00:09.525Z,13.93
2018-09-21T00:02:37.877Z,14.03
2018-09-21T00:05:06.286Z,14.04
2018-09-21T00:07:34.751Z,14.06
2018-09-21T00:10:03.088Z,14.14
2018-09-21T00:12:31.481Z,14.00
2018-09-21T00:14:59.869Z,13.93
2018-09-21T00:17:28.283Z,14.04
2018-09-21T00:19:56.684Z,14.18
2018-09-21T00:22:25.007Z,13.76
2018-09-21T00:24:53.436Z,13.94
2018-09-21T00:27:21.781Z,13.55
2018-09-21T00:29:50.169Z,13.78
2018-09-21T00:32:18.529Z,13.33
2018-09-21T00:34:46.913Z,13.79
2018-09-21T00:37:15.333Z,13.75
2018-09-21T00:39:43.740Z,13.82
2018-09-21T00:42:12.092Z,13.88
2018-09-21T00:44:40.493Z,13.67
2018-09-21T00:47:08.898Z,13.47
2018-09-21T00:49:37.220Z,13.55
2018-09-21T00:52:05.613Z,13.67
2018-09-21T00:54:33.980Z,13.82
2018-09-21T00:57:02.455Z,13.75
2018-09-21T00:59:30.905Z,13.80
2018-09-21T01:01:59.252Z,13.56
2018-09-21T01:04:31.776Z,13.73
2018-09-21T01:07:00.200Z,13.91
2018-09-21T01:09:28.542Z,13.86
2018-09-21T01:11:56.925Z,13.84
2018-09-21T01:14:25.375Z,13.90
2018-09-21T01:16:54.197Z,13.73
2018-09-21T01:19:22.836Z,13.72
2018-09-21T01:21:51.260Z,13.75
2018-09-21T01:24:19.660Z,13.79
2018-09-21T01:26:48.018Z,13.85
2018-09-21T01:29:16.424Z,13.88
2018-09-21T01:31:44.799Z,13.94
2018-09-21T01:34:13.207Z,13.90
2018-09-21T01:36:41.636Z,14.00
2018-09-21T01:39:10.895Z,14.06
2018-09-21T01:41:39.309Z,14.05
2018-09-21T01:44:08.447Z,13.94
2018-09-21T01:46:36.794Z,14.01
2018-09-21T01:49:05.226Z,14.10
2018-09-21T01:51:33.573Z,13.79
2018-09-21T01:54:01.911Z,13.96
2018-09-21T01:56:30.259Z,14.03
2018-09-21T01:58:58.614Z,13.94
2018-09-21T02:01:26.976Z,13.88
2018-09-21T02:03:55.304Z,13.89
2018-09-21T02:06:23.659Z,14.04
2018-09-21T02:08:52.032Z,13.85
2018-09-21T02:11:20.471Z,14.01
2018-09-21T02:13:48.814Z,14.55
2018-09-21T02:16:17.165Z,14.72
2018-09-21T02:18:45.484Z,14.98
2018-09-21T02:21:13.867Z,15.32
2018-09-21T02:23:42.210Z,15.52
2018-09-21T02:26:10.624Z,15.77
2018-09-21T02:28:38.947Z,15.76
2018-09-21T02:31:07.326Z,15.82
2018-09-21T02:33:35.690Z,15.96
2018-09-21T02:36:04.041Z,16.19
2018-09-21T02:38:32.566Z,16.30
2018-09-21T02:41:00.901Z,16.28
2018-09-21T02:43:29.277Z,16.42
2018-09-21T02:45:57.611Z,16.43
2018-09-21T02:48:25.964Z,16.58
2018-09-21T02:50:54.291Z,16.59
2018-09-21T02:53:22.659Z,16.70
2018-09-21T02:55:51.006Z,16.78
2018-09-21T02:58:19.419Z,16.84
2018-09-21T03:00:47.822Z,16.77
2018-09-21T03:03:16.127Z,16.82
2018-09-21T03:05:44.442Z,16.80
2018-09-21T03:08:13.379Z,16.70
2018-09-21T03:10:41.724Z,16.67
2018-09-21T03:13:10.124Z,16.67
2018-09-21T03:15:38.412Z,16.60
2018-09-21T03:18:06.797Z,16.50
2018-09-21T03:20:35.171Z,16.49
2018-09-21T03:23:03.505Z,16.38
2018-09-21T03:25:47.043Z,16.41
2018-09-21T03:28:27.517Z,16.55
2018-09-21T03:30:55.883Z,16.60
2018-09-21T03:33:24.325Z,16.63
2018-09-21T03:35:52.681Z,16.55
2018-09-21T03:38:21.055Z,16.62
2018-09-21T03:40:49.447Z,16.61
2018-09-21T03:43:17.799Z,16.63
2018-09-21T03:45:46.165Z,16.61
2018-09-21T03:48:14.512Z,16.63
2018-09-21T03:50:42.877Z,16.62
2018-09-21T03:53:11.190Z,16.64
2018-09-21T03:55:39.572Z,16.44
2018-09-21T03:58:08.056Z,16.50
2018-09-21T04:00:36.440Z,16.53
2018-09-21T04:03:04.864Z,16.50
2018-09-21T04:05:33.210Z,16.47
2018-09-21T04:08:01.570Z,16.37
2018-09-21T04:10:29.949Z,16.35
2018-09-21T04:13:00.156Z,16.30
2018-09-21T04:15:28.571Z,16.20
2018-09-21T04:18:08.300Z,16.33
2018-09-21T04:20:40.700Z,16.17
2018-09-21T04:23:23.191Z,16.15
2018-09-21T04:29:48.488Z,16.17
2018-09-21T04:32:16.983Z,16.31
2018-09-21T04:34:45.328Z,16.30
2018-09-21T04:37:14.684Z,16.34
2018-09-21T04:39:43.051Z,16.30
2018-09-21T04:42:11.548Z,16.40
2018-09-21T04:44:40.149Z,16.43
2018-09-21T04:47:08.680Z,16.45
2018-09-21T04:49:37.233Z,16.41
2018-09-21T04:52:06.418Z,16.50
2018-09-21T04:54:34.975Z,16.36
2018-09-21T04:57:03.672Z,16.49
2018-09-21T04:59:49.924Z,16.48
2018-09-21T05:02:20.477Z,16.39
2018-09-21T05:04:55.976Z,16.37
2018-09-21T05:07:24.331Z,16.42
2018-09-21T05:09:52.742Z,16.43
2018-09-21T05:12:21.103Z,16.35
2018-09-21T05:14:49.827Z,16.35
2018-09-21T05:17:18.469Z,16.35
2018-09-21T05:19:47.255Z,16.30
2018-09-21T05:22:15.896Z,16.19
2018-09-21T05:24:44.717Z,16.22
2018-09-21T05:27:13.541Z,16.35
2018-09-21T05:29:42.163Z,16.48
2018-09-21T05:32:10.808Z,16.52
2018-09-21T05:34:39.599Z,16.53
2018-09-21T05:37:08.152Z,16.66
2018-09-21T05:39:36.856Z,16.90
2018-09-21T05:42:05.461Z,16.93
2018-09-21T05:44:34.071Z,17.08
2018-09-21T05:47:02.594Z,17.22
2018-09-21T05:49:31.237Z,17.30
2018-09-21T05:51:59.862Z,17.39
2018-09-21T05:54:28.603Z,17.48
2018-09-21T05:56:57.236Z,17.61
2018-09-21T05:59:25.610Z,17.63
2018-09-21T06:01:54.071Z,17.80
2018-09-21T06:04:23.288Z,17.93
2018-09-21T06:06:51.919Z,18.17
2018-09-21T06:09:20.496Z,18.65
2018-09-21T06:11:49.169Z,18.56
2018-09-21T06:14:17.702Z,18.71
2018-09-21T06:16:46.342Z,18.94
2018-09-21T06:19:14.818Z,19.04
2018-09-21T06:21:43.371Z,19.13
2018-09-21T06:24:14.472Z,19.10
2018-09-21T06:26:42.992Z,19.12
2018-09-21T06:29:11.541Z,19.18
2018-09-21T06:31:40.158Z,19.43
2018-09-21T06:34:08.720Z,19.50
2018-09-21T06:36:37.300Z,19.60
2018-09-21T06:39:09.214Z,19.76
2018-09-21T06:41:38.139Z,19.82
2018-09-21T06:44:07.044Z,19.88
2018-09-21T06:46:35.668Z,20.05
2018-09-21T06:49:04.126Z,20.11
2018-09-21T06:51:32.832Z,20.26
2018-09-21T06:54:01.183Z,20.37
2018-09-21T06:56:29.826Z,20.41
2018-09-21T06:58:58.402Z,20.48
2018-09-21T07:01:26.999Z,20.49
2018-09-21T07:03:55.618Z,20.61
2018-09-21T07:06:24.348Z,20.58
2018-09-21T07:08:52.700Z,20.77
2018-09-21T07:11:21.120Z,20.90
2018-09-21T07:13:49.404Z,21.00
2018-09-21T07:16:18.938Z,20.95
2018-09-21T07:18:47.286Z,21.05
2018-09-21T07:21:15.787Z,21.14
2018-09-21T07:23:44.481Z,21.29
2018-09-21T07:26:13.227Z,21.17
2018-09-21T07:28:42.107Z,21.29
2018-09-21T07:31:11.020Z,21.43
2018-09-21T07:33:39.598Z,21.41
2018-09-21T07:36:08.163Z,21.49
2018-09-21T07:38:36.732Z,21.60
2018-09-21T07:41:05.442Z,21.41
2018-09-21T07:43:34.357Z,21.48
2018-09-21T07:46:02.867Z,21.45
2018-09-21T07:48:31.530Z,21.65
2018-09-21T07:51:00.052Z,21.59
2018-09-21T07:53:28.824Z,21.78
2018-09-21T07:55:57.585Z,21.92
2018-09-21T07:58:26.287Z,22.18
2018-09-21T08:00:55.026Z,22.13
2018-09-21T08:03:23.666Z,22.57
2018-09-21T08:05:52.206Z,22.55
2018-09-21T08:08:20.765Z,22.58
2018-09-21T08:10:49.300Z,22.97
2018-09-21T08:13:17.805Z,23.11
2018-09-21T08:15:46.364Z,23.01
2018-09-21T08:18:15.039Z,23.27
2018-09-21T08:20:43.502Z,23.22
2018-09-21T08:23:11.861Z,23.22
2018-09-21T08:25:40.302Z,23.33
2018-09-21T08:28:08.642Z,23.17
2018-09-21T08:30:37.235Z,23.16
2018-09-21T08:33:05.854Z,23.20
2018-09-21T08:35:34.429Z,23.15
2018-09-21T08:38:02.767Z,23.26
2018-09-21T08:40:31.368Z,23.26
2018-09-21T08:42:59.898Z,23.23
2018-09-21T08:45:28.552Z,23.21
2018-09-21T08:47:57.270Z,23.38
2018-09-21T08:50:25.878Z,23.23
2018-09-21T08:52:54.557Z,23.37
2018-09-21T08:55:22.962Z,23.29
2018-09-21T08:57:51.293Z,23.19
2018-09-21T09:00:19.594Z,23.29
2018-09-21T09:02:47.973Z,23.04
2018-09-21T09:05:16.367Z,23.20
2018-09-21T09:07:44.779Z,23.27
2018-09-21T09:10:13.611Z,23.15
2018-09-21T09:12:42.236Z,23.30
2018-09-21T09:15:10.830Z,23.62
2018-09-21T09:17:39.328Z,23.44
2018-09-21T09:20:09.720Z,23.61
2018-09-21T09:22:38.428Z,23.67
2018-09-21T09:25:07.558Z,23.68
2018-09-21T09:27:36.602Z,23.65
2018-09-21T09:30:05.938Z,23.70
2018-09-21T09:32:34.535Z,23.90
2018-09-21T09:35:09.660Z,23.88
2018-09-21T09:37:38.229Z,24.06
2018-09-21T09:40:07.301Z,24.04
2018-09-21T09:42:35.953Z,23.89
2018-09-21T09:45:04.415Z,24.00
2018-09-21T09:47:32.710Z,23.79
2018-09-21T09:50:01.334Z,23.82
2018-09-21T09:52:29.953Z,24.01
2018-09-21T09:54:58.674Z,24.05
2018-09-21T09:57:27.217Z,24.12
2018-09-21T09:59:55.753Z,24.08
2018-09-21T10:02:24.155Z,24.21
2018-09-21T10:04:52.601Z,23.95
2018-09-21T10:07:20.991Z,24.05
2018-09-21T10:09:49.422Z,24.15
2018-09-21T10:12:17.745Z,23.94
2018-09-21T10:14:46.089Z,24.03
2018-09-21T10:17:14.693Z,23.95
2018-09-21T10:19:43.400Z,23.96
2018-09-21T10:22:12.518Z,24.08
2018-09-21T10:24:40.904Z,24.10
2018-09-21T10:27:09.486Z,24.10
2018-09-21T10:29:37.804Z,24.20
2018-09-21T10:32:06.256Z,24.16
2018-09-21T10:34:34.545Z,24.34
2018-09-21T10:37:03.513Z,24.29
2018-09-21T10:39:31.825Z,24.24
2018-09-21T10:42:00.154Z,23.85
2018-09-21T10:44:28.482Z,23.97
2018-09-21T10:46:56.790Z,23.76
2018-09-21T10:49:25.213Z,23.65
2018-09-21T10:52:15.532Z,23.72
2018-09-21T10:54:43.855Z,23.73
2018-09-21T10:57:12.248Z,23.83
2018-09-21T10:59:40.562Z,23.64
2018-09-21T11:02:08.912Z,23.64
2018-09-21T11:04:37.253Z,23.87
2018-09-21T11:07:05.720Z,23.47
2018-09-21T11:09:34.140Z,23.56
2018-09-21T11:12:02.626Z,23.46
2018-09-21T11:14:31.100Z,23.37
2018-09-21T11:16:59.606Z,23.62
2018-09-21T11:19:28.150Z,23.54
2018-09-21T11:21:56.706Z,23.56
2018-09-21T11:24:25.852Z,23.49
2018-09-21T11:26:54.307Z,23.32
2018-09-21T11:29:22.813Z,23.45
2018-09-21T11:31:51.207Z,23.25
2018-09-21T11:34:19.701Z,23.18
2018-09-21T11:36:48.595Z,23.19
2018-09-21T11:39:17.148Z,22.99
2018-09-21T11:42:15.682Z,22.76
2018-09-21T11:44:44.207Z,22.56
2018-09-21T11:47:12.844Z,22.63
2018-09-21T11:49:41.224Z,22.49
2018-09-21T11:52:09.731Z,22.39
2018-09-21T11:54:38.253Z,22.24
2018-09-21T11:57:06.878Z,22.10
2018-09-21T11:59:35.342Z,21.96
2018-09-21T12:02:03.822Z,21.66
2018-09-21T12:04:32.260Z,21.17
2018-09-21T12:07:00.771Z,18.91
2018-09-21T12:09:29.161Z,16.63
2018-09-21T12:11:57.667Z,15.97
2018-09-21T12:14:26.146Z,15.25
2018-09-21T12:16:54.603Z,15.12
2018-09-21T12:19:23.066Z,14.86
2018-09-21T12:21:51.569Z,14.71
2018-09-21T12:24:20.024Z,14.34
2018-09-21T12:26:48.613Z,14.34
2018-09-21T12:29:17.128Z,14.11
2018-09-21T12:31:45.672Z,13.69
2018-09-21T12:34:14.097Z,13.71
2018-09-21T12:36:42.591Z,13.41
2018-09-21T12:39:12.926Z,13.20
2018-09-21T12:41:41.628Z,13.14
2018-09-21T12:44:11.231Z,13.24
2018-09-21T12:46:39.787Z,13.17
2018-09-21T12:49:08.356Z,13.01
2018-09-21T12:51:36.804Z,13.10
2018-09-21T12:54:05.296Z,13.10
2018-09-21T12:56:33.917Z,13.12
2018-09-21T12:59:02.365Z,13.14
2018-09-21T13:01:30.831Z,13.01
2018-09-21T13:03:59.386Z,12.91
2018-09-21T13:06:27.802Z,12.91
2018-09-21T13:08:56.317Z,12.87
2018-09-21T13:11:24.837Z,12.86
2018-09-21T13:13:53.349Z,12.77
2018-09-21T13:16:21.855Z,12.65
2018-09-21T13:18:50.370Z,12.74
2018-09-21T13:21:18.846Z,12.61
2018-09-21T13:23:47.452Z,12.67
2018-09-21T13:26:15.837Z,13.04
2018-09-21T13:28:44.447Z,13.05
2018-09-21T13:31:12.915Z,13.11
2018-09-21T13:33:42.003Z,12.86
2018-09-21T13:36:10.529Z,13.16
2018-09-21T13:38:38.944Z,13.01
2018-09-21T13:41:07.386Z,12.72
2018-09-21T13:43:35.827Z,12.86
2018-09-21T13:46:04.291Z,13.15
2018-09-21T13:48:32.774Z,13.01
2018-09-21T13:51:01.176Z,12.84
2018-09-21T13:53:29.634Z,12.99
2018-09-21T13:55:58.050Z,12.90
2018-09-21T13:58:26.589Z,12.79
2018-09-21T14:00:55.055Z,12.94
2018-09-21T14:03:23.534Z,13.04
2018-09-21T14:05:51.995Z,13.01
2018-09-21T14:08:20.452Z,13.19
2018-09-21T14:10:48.894Z,12.89
2018-09-21T14:13:17.366Z,13.31
2018-09-21T14:15:45.858Z,13.37
2018-09-21T14:18:14.306Z,13.27
2018-09-21T14:20:42.931Z,13.50
2018-09-21T14:23:11.424Z,13.60
2018-09-21T14:25:39.955Z,13.28
2018-09-21T14:28:08.435Z,13.53
2018-09-21T14:30:36.853Z,13.60
2018-09-21T14:33:05.456Z,13.68
2018-09-21T14:35:33.902Z,13.47
2018-09-21T14:38:02.527Z,13.59
2018-09-21T14:40:31.008Z,13.34
2018-09-21T14:42:59.449Z,13.54
2018-09-21T14:45:27.949Z,13.64
2018-09-21T14:47:56.533Z,13.55
2018-09-21T14:50:25.100Z,13.52
2018-09-21T14:52:53.565Z,14.10
2018-09-21T14:55:22.189Z,13.90
2018-09-21T14:57:50.652Z,13.64
2018-09-21T15:00:19.129Z,13.92
2018-09-21T15:02:47.707Z,13.60
2018-09-21T15:05:16.477Z,13.56
2018-09-21T15:07:45.094Z,13.63
2018-09-21T15:10:13.638Z,13.73
2018-09-21T15:12:42.123Z,13.88
2018-09-21T15:15:10.615Z,14.06
2018-09-21T15:17:39.200Z,13.55
2018-09-21T15:20:07.826Z,13.92
2018-09-21T15:22:36.698Z,13.86
2018-09-21T15:25:06.976Z,13.88
2018-09-21T15:27:36.254Z,13.90
2018-09-21T15:30:05.267Z,13.88
2018-09-21T15:32:34.314Z,13.93
2018-09-21T15:35:02.802Z,13.67
2018-09-21T15:37:31.485Z,13.75
2018-09-21T15:40:00.283Z,13.86
2018-09-21T15:42:28.892Z,13.71
2018-09-21T15:44:58.060Z,13.80
2018-09-21T15:47:27.129Z,13.52
2018-09-21T15:49:55.568Z,13.55
2018-09-21T15:52:24.055Z,13.44
2018-09-21T15:54:52.706Z,13.39
2018-09-21T15:57:21.390Z,13.51
2018-09-21T15:59:50.154Z,13.70
2018-09-21T16:02:18.641Z,13.53
2018-09-21T16:04:47.160Z,13.59
2018-09-21T16:07:15.844Z,13.87
2018-09-21T16:09:45.219Z,13.94
2018-09-21T16:12:14.467Z,13.81
2018-09-21T16:14:42.906Z,13.41
2018-09-21T16:17:11.764Z,13.50
2018-09-21T16:19:40.322Z,13.93
2018-09-21T16:22:08.774Z,13.91
2018-09-21T16:24:37.236Z,13.98
2018-09-21T16:27:06.331Z,13.65
2018-09-21T16:29:34.925Z,13.67
2018-09-21T16:32:03.404Z,13.67
2018-09-21T16:34:32.269Z,14.05
2018-09-21T16:37:00.857Z,13.68
2018-09-21T16:39:29.316Z,13.57
2018-09-21T16:41:58.618Z,13.59
2018-09-21T16:44:27.398Z,13.33
2018-09-21T16:46:56.114Z,13.31
2018-09-21T16:49:25.259Z,13.55
2018-09-21T16:51:54.134Z,13.56
2018-09-21T16:54:22.944Z,13.50
2018-09-21T16:56:51.987Z,13.68
2018-09-21T16:59:20.690Z,13.49
2018-09-21T17:01:49.582Z,13.36
2018-09-21T17:04:18.372Z,13.44
2018-09-21T17:06:49.389Z,13.41
2018-09-21T17:09:18.292Z,13.70
2018-09-21T17:11:46.857Z,13.60
2018-09-21T17:14:15.218Z,13.33
2018-09-21T17:16:43.990Z,13.45
2018-09-21T17:19:12.343Z,13.55
2018-09-21T17:21:40.886Z,13.45
2018-09-21T17:24:09.223Z,13.35
2018-09-21T17:26:37.577Z,13.58
2018-09-21T17:29:06.220Z,13.49
2018-09-21T17:31:34.676Z,13.55
2018-09-21T17:34:03.203Z,13.57
2018-09-21T17:36:31.510Z,13.27
2018-09-21T17:38:59.945Z,13.45
2018-09-21T17:41:28.363Z,13.44
2018-09-21T17:43:56.708Z,13.49
2018-09-21T17:46:26.859Z,13.44
2018-09-21T17:48:55.475Z,13.29
2018-09-21T17:51:23.950Z,13.21
2018-09-21T17:54:30.428Z,13.32
2018-09-21T17:56:59.812Z,13.36
2018-09-21T17:59:28.126Z,13.31
2018-09-21T18:01:56.470Z,13.18
2018-09-21T18:04:25.969Z,13.28
2018-09-21T18:06:55.598Z,13.14
2018-09-21T18:09:24.249Z,13.09
2018-09-21T18:11:53.242Z,12.91
2018-09-21T18:14:27.042Z,12.81
2018-09-21T18:16:56.939Z,13.05
2018-09-21T18:19:27.434Z,12.97
2018-09-21T18:21:56.556Z,12.88
2018-09-21T18:24:26.054Z,12.91
2018-09-21T18:26:55.988Z,12.78
2018-09-21T18:29:25.770Z,12.71
2018-09-21T18:31:54.638Z,12.57
2018-09-21T18:34:23.595Z,12.41
2018-09-21T18:36:52.613Z,12.60
2018-09-21T18:39:21.809Z,12.54
2018-09-21T18:41:50.727Z,12.69
2018-09-21T18:44:19.505Z,12.72
2018-09-21T18:46:48.743Z,12.68
2018-09-21T18:49:17.494Z,12.66
2018-09-21T18:51:46.841Z,12.50
2018-09-21T18:54:15.712Z,12.58
2018-09-21T18:56:46.620Z,12.62
2018-09-21T18:59:17.082Z,12.48
2018-09-21T19:01:46.541Z,12.36
2018-09-21T19:04:16.200Z,12.50
2018-09-21T19:06:44.712Z,12.43
2018-09-21T19:09:13.327Z,12.38
2018-09-21T19:11:41.771Z,12.63
2018-09-21T19:14:10.195Z,12.38
2018-09-21T19:16:39.407Z,12.31
2018-09-21T19:19:07.913Z,12.30
2018-09-21T19:21:37.708Z,12.07
2018-09-21T19:24:08.318Z,12.03
2018-09-21T19:26:38.048Z,11.95
2018-09-21T19:29:06.872Z,11.74
2018-09-21T19:31:35.177Z,11.64
2018-09-21T19:34:03.609Z,11.72
2018-09-21T19:36:35.793Z,11.36
2018-09-21T19:39:07.108Z,11.42
2018-09-21T19:41:35.442Z,11.09
2018-09-21T19:44:04.586Z,10.66
2018-09-21T19:46:33.097Z,10.65
2018-09-21T19:49:01.431Z,10.69
2018-09-21T19:51:29.907Z,10.45
2018-09-21T19:53:58.250Z,10.49
2018-09-21T19:56:26.550Z,10.31
2018-09-21T19:58:54.938Z,9.87
2018-09-21T20:01:23.224Z,10.20
2018-09-21T20:03:51.553Z,10.15
2018-09-21T20:06:21.107Z,10.35
2018-09-21T20:08:50.522Z,9.72
2018-09-21T20:11:20.152Z,10.15
2018-09-21T20:13:49.271Z,10.24
2018-09-21T20:16:17.605Z,9.76
2018-09-21T20:18:46.039Z,10.11
2018-09-21T20:21:14.354Z,10.07
2018-09-21T20:23:42.762Z,9.85
2018-09-21T20:26:11.047Z,9.97
2018-09-21T20:28:39.851Z,10.13
2018-09-21T20:31:13.606Z,10.20
2018-09-21T20:33:42.406Z,9.93
2018-09-21T20:36:10.750Z,9.81
2018-09-21T20:38:39.097Z,9.38
2018-09-21T20:41:07.535Z,9.54
2018-09-21T20:43:35.818Z,9.81
2018-09-21T20:46:04.147Z,9.98
2018-09-21T20:48:32.422Z,10.22
2018-09-21T20:51:00.722Z,9.51
2018-09-21T20:53:29.026Z,9.50
2018-09-21T20:55:57.341Z,9.43
2018-09-21T20:58:25.742Z,9.22
2018-09-21T21:00:54.062Z,9.53
2018-09-21T21:03:22.477Z,9.45
2018-09-21T21:05:50.758Z,9.22
2018-09-21T21:08:19.405Z,9.20
2018-09-21T21:10:47.706Z,9.48
2018-09-21T21:13:16.074Z,9.32
2018-09-21T21:15:44.378Z,9.46
2018-09-21T21:18:12.815Z,10.19
2018-09-21T21:20:41.123Z,10.13
2018-09-21T21:23:09.394Z,9.78
2018-09-21T21:25:37.890Z,10.00
2018-09-21T21:28:06.540Z,9.80
2018-09-21T21:30:34.887Z,10.55
2018-09-21T21:33:03.230Z,10.83
2018-09-21T21:35:31.547Z,10.87
2018-09-21T21:37:59.862Z,10.89
2018-09-21T21:40:28.199Z,11.22
2018-09-21T21:42:57.374Z,11.21
2018-09-21T21:45:25.725Z,11.39
2018-09-21T21:47:54.032Z,11.18
2018-09-21T21:50:22.294Z,11.08
2018-09-21T21:52:50.667Z,11.12
2018-09-21T21:55:18.974Z,11.17
2018-09-21T21:57:47.318Z,11.17
2018-09-21T22:00:15.701Z,11.12
2018-09-21T22:02:44.042Z,11.15
2018-09-21T22:05:12.386Z,11.29
2018-09-21T22:07:40.833Z,10.97
2018-09-21T22:10:09.542Z,10.99
2018-09-21T22:12:43.045Z,11.03
2018-09-21T22:15:13.943Z,11.00
2018-09-21T22:17:42.366Z,10.93
2018-09-21T22:20:11.039Z,10.76
2018-09-21T22:22:39.492Z,10.93
2018-09-21T22:25:07.989Z,10.93
2018-09-21T22:27:36.333Z,10.88
2018-09-21T22:30:05.003Z,11.12
2018-09-21T22:32:33.325Z,11.00
2018-09-21T22:35:01.623Z,10.89
2018-09-21T22:37:29.991Z,10.85
2018-09-21T22:39:58.330Z,10.80
2018-09-21T22:42:26.664Z,10.67
2018-09-21T22:44:55.106Z,10.75
2018-09-21T22:47:23.405Z,10.96
2018-09-21T22:49:51.721Z,10.75
2018-09-21T22:52:20.051Z,10.68
2018-09-21T22:54:48.339Z,10.98
2018-09-21T22:57:16.722Z,11.04
2018-09-21T22:59:45.192Z,11.10
2018-09-21T23:02:13.681Z,11.01
2018-09-21T23:04:42.382Z,10.79
2018-09-21T23:07:11.891Z,11.11
2018-09-21T23:09:40.175Z,10.82
2018-09-21T23:12:08.514Z,10.96
2018-09-21T23:14:36.806Z,10.89
2018-09-21T23:17:05.158Z,10.81
2018-09-21T23:19:33.538Z,10.80
2018-09-21T23:22:01.918Z,10.84
2018-09-21T23:24:30.227Z,10.96
2018-09-21T23:26:58.543Z,10.97
2018-09-21T23:29:26.830Z,11.23
2018-09-21T23:31:55.212Z,11.00
2018-09-21T23:34:23.499Z,11.06
2018-09-21T23:36:51.798Z,11.23
2018-09-21T23:39:20.070Z,11.21
2018-09-21T23:41:48.462Z,11.04
2018-09-21T23:44:16.783Z,11.23
2018-09-21T23:46:45.081Z,11.17
2018-09-21T23:49:13.386Z,11.29
2018-09-21T23:51:42.027Z,11.30
2018-09-21T23:54:10.292Z,11.33
2018-09-21T23:56:38.592Z,11.06
2018-09-21T23:59:06.874Z,11.35
